createdAt,value
2019-06-26T00:01:56.744Z,25.50
2019-06-26T00:04:25.548Z,25.40
2019-06-26T00:06:54.600Z,25.30
2019-06-26T00:09:23.987Z,25.30
2019-06-26T00:11:53.336Z,25.30
2019-06-26T00:14:21.678Z,25.30
2019-06-26T00:16:50.457Z,25.30
2019-06-26T00:19:19.054Z,25.20
2019-06-26T00:21:49.266Z,25.10
2019-06-26T00:24:18.355Z,25.00
2019-06-26T00:26:47.357Z,24.90
2019-06-26T00:29:17.162Z,24.90
2019-06-26T00:31:46.144Z,24.80
2019-06-26T00:34:15.132Z,24.80
2019-06-26T00:36:44.245Z,24.70
2019-06-26T00:39:14.064Z,24.70
2019-06-26T00:41:42.746Z,24.60
2019-06-26T00:44:11.432Z,24.60
2019-06-26T00:46:40.431Z,24.50
2019-06-26T00:49:09.114Z,24.40
2019-06-26T00:51:37.601Z,24.30
2019-06-26T00:54:06.266Z,24.20
2019-06-26T00:56:35.631Z,24.20
2019-06-26T00:59:04.663Z,24.10
2019-06-26T01:01:35.398Z,24.00
2019-06-26T01:04:10.497Z,24.00
2019-06-26T01:06:44.922Z,24.00
2019-06-26T01:09:14.818Z,23.90
2019-06-26T01:11:45.098Z,23.80
2019-06-26T01:14:14.420Z,23.80
2019-06-26T01:16:43.714Z,23.80
2019-06-26T01:19:12.405Z,23.80
2019-06-26T01:21:41.108Z,23.80
2019-06-26T01:24:11.765Z,23.80
2019-06-26T01:26:40.320Z,23.80
2019-06-26T01:29:09.416Z,23.70
2019-06-26T01:31:37.976Z,23.70
2019-06-26T01:34:06.671Z,23.70
2019-06-26T01:36:35.347Z,23.60
2019-06-26T01:39:05.567Z,23.60
2019-06-26T01:41:34.151Z,23.60
2019-06-26T01:44:14.131Z,23.50
2019-06-26T01:46:33.825Z,23.50
2019-06-26T01:49:02.698Z,23.50
2019-06-26T01:51:31.484Z,23.50
2019-06-26T01:54:00.176Z,23.50
2019-06-26T01:56:31.384Z,23.40
2019-06-26T01:59:01.468Z,23.30
2019-06-26T02:01:30.239Z,23.30
2019-06-26T02:04:00.960Z,23.40
2019-06-26T02:06:30.070Z,23.30
2019-06-26T02:08:59.032Z,23.30
2019-06-26T02:11:28.844Z,23.30
2019-06-26T02:13:57.453Z,23.20
2019-06-26T02:16:26.359Z,23.20
2019-06-26T02:18:59.169Z,23.20
2019-06-26T02:21:28.529Z,23.20
2019-06-26T02:23:57.655Z,23.20
2019-06-26T02:26:27.830Z,23.10
2019-06-26T02:28:56.339Z,23.10
2019-06-26T02:31:24.890Z,23.10
2019-06-26T02:33:53.635Z,23.00
2019-06-26T02:36:22.381Z,22.90
2019-06-26T02:38:51.210Z,22.90
2019-06-26T02:41:19.797Z,23.00
2019-06-26T02:43:48.905Z,23.00
2019-06-26T02:46:17.646Z,23.00
2019-06-26T02:48:46.961Z,22.80
2019-06-26T02:51:15.611Z,22.80
2019-06-26T02:53:44.430Z,22.80
2019-06-26T02:56:14.023Z,22.80
2019-06-26T02:58:42.721Z,22.70
2019-06-26T03:01:11.599Z,22.70
2019-06-26T03:03:40.294Z,22.70
2019-06-26T03:06:10.412Z,22.60
2019-06-26T03:08:39.007Z,22.70
2019-06-26T03:11:07.584Z,22.60
2019-06-26T03:13:37.807Z,22.60
2019-06-26T03:16:06.479Z,22.50
2019-06-26T03:18:35.572Z,22.50
2019-06-26T03:21:05.527Z,22.60
2019-06-26T03:23:34.417Z,22.60
2019-06-26T03:26:03.376Z,22.50
2019-06-26T03:28:33.721Z,22.60
2019-06-26T03:31:02.280Z,22.70
2019-06-26T03:33:30.989Z,22.70
2019-06-26T03:35:59.969Z,22.70
2019-06-26T03:38:29.678Z,22.80
2019-06-26T03:40:58.282Z,22.80
2019-06-26T03:43:26.782Z,22.80
2019-06-26T03:45:55.389Z,22.80
2019-06-26T03:48:24.034Z,22.80
2019-06-26T03:50:53.025Z,22.80
2019-06-26T03:53:21.746Z,22.70
2019-06-26T03:55:50.501Z,22.80
2019-06-26T03:58:19.077Z,22.80
2019-06-26T04:00:47.747Z,22.70
2019-06-26T04:03:16.061Z,22.70
2019-06-26T04:05:44.602Z,22.70
2019-06-26T04:08:15.050Z,22.80
2019-06-26T04:10:43.802Z,22.80
2019-06-26T04:13:12.404Z,22.90
2019-06-26T04:15:42.755Z,23.00
2019-06-26T04:18:10.939Z,22.90
2019-06-26T04:20:39.699Z,23.00
2019-06-26T04:23:08.098Z,23.10
2019-06-26T04:25:38.311Z,23.20
2019-06-26T04:28:07.317Z,23.30
2019-06-26T04:30:36.240Z,23.40
2019-06-26T04:33:04.756Z,23.40
2019-06-26T04:35:33.670Z,23.50
2019-06-26T04:38:02.331Z,23.50
2019-06-26T04:40:31.107Z,23.50
2019-06-26T04:43:00.075Z,23.50
2019-06-26T04:45:29.354Z,23.50
2019-06-26T04:47:59.021Z,23.50
2019-06-26T04:50:27.651Z,23.50
2019-06-26T04:52:55.988Z,23.60
2019-06-26T04:55:25.085Z,23.60
2019-06-26T04:57:53.562Z,23.60
2019-06-26T05:00:23.605Z,23.70
2019-06-26T05:02:51.993Z,23.70
2019-06-26T05:05:20.712Z,23.80
2019-06-26T05:07:49.059Z,23.90
2019-06-26T05:10:19.586Z,23.90
2019-06-26T05:12:48.269Z,24.00
2019-06-26T05:15:19.295Z,24.10
2019-06-26T05:17:49.568Z,24.20
2019-06-26T05:20:18.341Z,24.30
2019-06-26T05:22:46.691Z,24.30
2019-06-26T05:25:15.352Z,24.40
2019-06-26T05:27:43.698Z,24.40
2019-06-26T05:30:12.854Z,24.50
2019-06-26T05:32:43.297Z,24.60
2019-06-26T05:35:12.494Z,24.70
2019-06-26T05:37:40.991Z,24.80
2019-06-26T05:40:11.059Z,24.80
2019-06-26T05:42:39.755Z,24.90
2019-06-26T05:45:09.524Z,24.90
2019-06-26T05:47:37.905Z,25.00
2019-06-26T05:50:07.635Z,25.00
2019-06-26T05:52:36.469Z,25.10
2019-06-26T05:55:05.820Z,25.10
2019-06-26T05:57:34.205Z,25.20
2019-06-26T06:00:05.149Z,25.20
2019-06-26T06:02:33.696Z,25.40
2019-06-26T06:05:03.185Z,25.50
2019-06-26T06:07:31.986Z,25.50
2019-06-26T06:10:02.300Z,25.60
2019-06-26T06:12:32.660Z,25.60
2019-06-26T06:15:01.031Z,25.80
2019-06-26T06:17:30.110Z,25.80
2019-06-26T06:19:59.858Z,25.90
2019-06-26T06:22:30.383Z,26.00
2019-06-26T06:24:58.929Z,26.10
2019-06-26T06:27:27.691Z,26.10
2019-06-26T06:29:56.477Z,26.20
2019-06-26T06:32:24.986Z,26.30
2019-06-26T06:34:54.933Z,26.40
2019-06-26T06:37:23.599Z,26.50
2019-06-26T06:39:51.941Z,26.60
2019-06-26T06:42:21.192Z,26.70
2019-06-26T06:44:49.980Z,26.70
2019-06-26T06:47:18.630Z,26.80
2019-06-26T06:49:47.342Z,26.90
2019-06-26T06:52:17.393Z,26.90
2019-06-26T06:54:45.757Z,27.00
2019-06-26T06:57:14.320Z,27.10
2019-06-26T06:59:43.030Z,27.20
2019-06-26T07:02:11.349Z,27.30
2019-06-26T07:04:40.057Z,27.40
2019-06-26T07:07:08.784Z,27.60
2019-06-26T07:09:37.122Z,27.70
2019-06-26T07:12:05.510Z,27.80
2019-06-26T07:14:35.695Z,27.80
2019-06-26T07:17:19.278Z,27.90
2019-06-26T07:19:34.621Z,28.00
2019-06-26T07:22:07.198Z,28.10
2019-06-26T07:24:35.745Z,28.20
2019-06-26T07:27:04.366Z,28.30
2019-06-26T07:29:32.868Z,28.40
2019-06-26T07:32:02.016Z,28.40
2019-06-26T07:34:30.357Z,28.50
2019-06-26T07:37:02.490Z,28.60
2019-06-26T07:39:31.184Z,28.80
2019-06-26T07:41:59.908Z,28.90
2019-06-26T07:44:31.037Z,29.10
2019-06-26T07:47:00.520Z,29.20
2019-06-26T07:49:30.007Z,29.50
2019-06-26T07:51:58.869Z,29.60
2019-06-26T07:54:28.876Z,29.70
2019-06-26T07:56:58.164Z,29.80
2019-06-26T07:59:26.569Z,30.00
2019-06-26T08:01:55.280Z,30.20
2019-06-26T08:04:23.642Z,30.40
2019-06-26T08:06:52.373Z,30.50
2019-06-26T08:09:21.012Z,30.80
2019-06-26T08:11:49.815Z,31.20
2019-06-26T08:14:18.769Z,31.50
2019-06-26T08:16:49.209Z,31.60
2019-06-26T08:19:20.701Z,31.70
2019-06-26T08:21:49.798Z,32.00
2019-06-26T08:24:19.747Z,32.10
2019-06-26T08:26:48.444Z,32.30
2019-06-26T08:29:17.415Z,32.50
2019-06-26T08:31:46.014Z,32.70
2019-06-26T08:34:16.689Z,32.80
2019-06-26T08:36:45.496Z,32.80
2019-06-26T08:39:15.311Z,32.70
2019-06-26T08:41:43.793Z,32.80
2019-06-26T08:44:12.613Z,33.00
2019-06-26T08:46:41.492Z,32.90
2019-06-26T08:49:24.441Z,32.80
2019-06-26T08:51:41.607Z,33.00
2019-06-26T08:54:10.306Z,33.10
2019-06-26T08:56:39.348Z,33.10
2019-06-26T08:59:08.324Z,33.20
2019-06-26T09:01:37.101Z,33.10
2019-06-26T09:04:06.298Z,33.20
2019-06-26T09:06:35.382Z,33.20
2019-06-26T09:09:07.111Z,33.30
2019-06-26T09:11:36.349Z,33.40
2019-06-26T09:14:05.180Z,33.70
2019-06-26T09:16:34.208Z,33.90
2019-06-26T09:19:05.149Z,34.00
2019-06-26T09:21:34.003Z,34.00
2019-06-26T09:24:02.764Z,34.00
2019-06-26T09:26:33.078Z,34.00
2019-06-26T09:29:02.618Z,34.10
2019-06-26T09:31:31.613Z,34.20
2019-06-26T09:34:00.366Z,34.40
2019-06-26T09:36:29.576Z,34.50
2019-06-26T09:38:58.453Z,34.60
2019-06-26T09:41:28.201Z,34.70
2019-06-26T09:43:56.798Z,35.00
2019-06-26T09:46:25.491Z,35.00
2019-06-26T09:48:54.530Z,35.20
2019-06-26T09:51:23.286Z,35.50
2019-06-26T09:53:52.282Z,35.90
2019-06-26T09:56:21.439Z,36.00
2019-06-26T09:58:50.528Z,35.80
2019-06-26T10:01:19.289Z,35.60
2019-06-26T10:03:48.238Z,35.70
2019-06-26T10:06:16.757Z,36.00
2019-06-26T10:08:45.728Z,36.30
2019-06-26T10:11:14.720Z,36.00
2019-06-26T10:13:43.665Z,35.60
2019-06-26T10:16:12.665Z,35.90
2019-06-26T10:18:41.604Z,36.10
2019-06-26T10:21:12.486Z,36.40
2019-06-26T10:23:41.508Z,36.70
2019-06-26T10:26:10.786Z,36.60
2019-06-26T10:28:40.659Z,36.30
2019-06-26T10:31:09.490Z,36.90
2019-06-26T10:33:38.097Z,37.70
2019-06-26T10:36:07.253Z,38.50
2019-06-26T10:38:35.756Z,39.20
2019-06-26T10:41:04.405Z,39.00
2019-06-26T10:43:35.978Z,38.30
2019-06-26T10:46:05.252Z,37.70
2019-06-26T10:48:43.228Z,37.50
2019-06-26T10:51:12.190Z,37.60
2019-06-26T10:53:41.112Z,37.50
2019-06-26T10:56:09.741Z,37.80
2019-06-26T10:58:38.419Z,37.90
2019-06-26T11:01:09.013Z,38.20
2019-06-26T11:03:37.959Z,38.40
2019-06-26T11:06:06.274Z,38.10
2019-06-26T11:08:35.277Z,37.20
2019-06-26T11:11:04.019Z,37.10
2019-06-26T11:13:32.772Z,37.80
2019-06-26T11:16:02.764Z,38.20
2019-06-26T11:18:31.901Z,38.60
2019-06-26T11:21:01.756Z,39.40
2019-06-26T11:23:32.527Z,40.10
2019-06-26T11:26:02.245Z,40.10
2019-06-26T11:28:31.356Z,40.00
2019-06-26T11:31:02.106Z,39.50
2019-06-26T11:33:31.112Z,39.40
2019-06-26T11:35:59.805Z,39.40
2019-06-26T11:38:28.857Z,38.40
2019-06-26T11:40:57.611Z,38.00
2019-06-26T11:43:27.123Z,38.40
2019-06-26T11:45:56.983Z,37.80
2019-06-26T11:48:25.770Z,37.50
2019-06-26T11:50:54.325Z,38.00
2019-06-26T11:53:23.241Z,38.10
2019-06-26T11:55:53.404Z,38.50
2019-06-26T11:58:22.993Z,39.40
2019-06-26T12:00:51.892Z,39.50
2019-06-26T12:03:21.206Z,39.50
2019-06-26T12:05:50.202Z,39.90
2019-06-26T12:08:19.317Z,40.30
2019-06-26T12:10:48.174Z,40.60
2019-06-26T12:13:17.029Z,40.60
2019-06-26T12:15:45.833Z,40.40
2019-06-26T12:18:14.767Z,40.00
2019-06-26T12:20:43.936Z,39.60
2019-06-26T12:23:15.521Z,39.10
2019-06-26T12:25:46.452Z,39.00
2019-06-26T12:28:15.501Z,39.10
2019-06-26T12:30:44.184Z,39.20
2019-06-26T12:33:13.249Z,39.80
2019-06-26T12:35:41.840Z,40.40
2019-06-26T12:38:10.530Z,40.70
2019-06-26T12:40:39.732Z,40.80
2019-06-26T12:43:09.253Z,40.40
2019-06-26T12:45:38.153Z,40.10
2019-06-26T12:48:10.926Z,39.60
2019-06-26T12:50:40.091Z,39.50
2019-06-26T12:53:08.771Z,39.70
2019-06-26T12:55:37.533Z,39.90
2019-06-26T12:58:13.051Z,40.00
2019-06-26T13:00:37.922Z,39.80
2019-06-26T13:03:06.899Z,39.50
2019-06-26T13:05:36.799Z,39.70
2019-06-26T13:08:05.805Z,39.70
2019-06-26T13:10:48.989Z,40.00
2019-06-26T13:13:06.355Z,40.10
2019-06-26T13:15:36.255Z,40.20
2019-06-26T13:18:04.980Z,40.20
2019-06-26T13:20:33.522Z,40.40
2019-06-26T13:23:02.360Z,40.20
2019-06-26T13:25:31.045Z,39.80
2019-06-26T13:28:01.756Z,39.70
2019-06-26T13:30:36.977Z,39.90
2019-06-26T13:33:05.855Z,39.90
2019-06-26T13:35:36.592Z,39.90
2019-06-26T13:38:05.363Z,39.70
2019-06-26T13:40:34.088Z,39.40
2019-06-26T13:43:02.785Z,39.40
2019-06-26T13:45:31.457Z,39.60
2019-06-26T13:48:00.293Z,39.40
2019-06-26T13:50:32.525Z,39.60
2019-06-26T13:53:02.760Z,39.60
2019-06-26T13:55:31.462Z,39.50
2019-06-26T13:58:00.220Z,39.70
2019-06-26T14:00:29.415Z,40.10
2019-06-26T14:02:57.807Z,40.10
2019-06-26T14:05:29.496Z,40.00
2019-06-26T14:07:59.160Z,40.00
2019-06-26T14:10:27.897Z,40.10
2019-06-26T14:12:56.904Z,40.10
2019-06-26T14:15:25.934Z,40.00
2019-06-26T14:17:54.438Z,40.00
2019-06-26T14:20:23.214Z,39.90
2019-06-26T14:22:52.687Z,39.70
2019-06-26T14:25:21.972Z,39.90
2019-06-26T14:27:50.625Z,40.10
2019-06-26T14:30:21.879Z,40.20
2019-06-26T14:32:50.732Z,40.40
2019-06-26T14:35:19.533Z,40.60
2019-06-26T14:37:50.083Z,40.50
2019-06-26T14:40:18.675Z,40.40
2019-06-26T14:42:47.241Z,40.30
2019-06-26T14:45:16.126Z,40.00
2019-06-26T14:47:45.057Z,39.90
2019-06-26T14:50:13.862Z,39.90
2019-06-26T14:52:45.958Z,40.10
2019-06-26T14:55:15.272Z,40.10
2019-06-26T14:57:44.617Z,40.10
2019-06-26T15:00:14.012Z,40.20
2019-06-26T15:02:43.079Z,40.20
2019-06-26T15:05:11.890Z,40.30
2019-06-26T15:07:40.710Z,40.10
2019-06-26T15:10:10.071Z,39.90
2019-06-26T15:12:39.002Z,40.20
2019-06-26T15:15:08.166Z,40.10
2019-06-26T15:17:36.874Z,40.30
2019-06-26T15:20:07.226Z,40.40
2019-06-26T15:22:39.686Z,40.70
2019-06-26T15:25:08.766Z,40.70
2019-06-26T15:27:37.474Z,40.50
2019-06-26T15:30:06.601Z,40.40
2019-06-26T15:32:37.338Z,40.10
2019-06-26T15:35:07.510Z,40.00
2019-06-26T15:37:36.763Z,39.90
2019-06-26T15:40:05.881Z,39.80
2019-06-26T15:42:34.989Z,39.70
2019-06-26T15:45:04.603Z,39.60
2019-06-26T15:47:33.724Z,39.80
2019-06-26T15:50:02.419Z,39.90
2019-06-26T15:52:31.663Z,40.10
2019-06-26T15:55:02.114Z,40.50
2019-06-26T15:57:30.587Z,40.20
2019-06-26T15:59:59.617Z,40.10
2019-06-26T16:02:28.751Z,40.10
2019-06-26T16:04:57.835Z,39.80
2019-06-26T16:07:26.632Z,39.70
2019-06-26T16:09:55.693Z,39.90
2019-06-26T16:12:24.872Z,39.80
2019-06-26T16:14:53.884Z,39.70
2019-06-26T16:17:39.086Z,39.40
2019-06-26T16:20:08.411Z,39.40
2019-06-26T16:22:37.111Z,39.50
2019-06-26T16:25:06.620Z,39.60
2019-06-26T16:27:34.758Z,39.70
2019-06-26T16:30:04.397Z,39.40
2019-06-26T16:32:32.427Z,39.40
2019-06-26T16:35:03.561Z,39.20
2019-06-26T16:37:32.011Z,39.20
2019-06-26T16:40:02.868Z,39.40
2019-06-26T16:42:32.890Z,39.60
2019-06-26T16:45:01.903Z,39.60
2019-06-26T16:47:31.243Z,39.30
2019-06-26T16:49:59.759Z,39.30
2019-06-26T16:52:28.501Z,39.40
2019-06-26T16:54:57.130Z,39.40
2019-06-26T16:57:27.506Z,39.30
2019-06-26T17:00:08.880Z,39.30
2019-06-26T17:02:26.673Z,39.30
2019-06-26T17:04:55.800Z,39.40
2019-06-26T17:07:24.565Z,39.20
2019-06-26T17:09:53.613Z,39.40
2019-06-26T17:12:22.253Z,39.30
2019-06-26T17:14:52.520Z,39.20
2019-06-26T17:17:21.344Z,38.90
2019-06-26T17:19:50.117Z,38.70
2019-06-26T17:22:19.481Z,38.70
2019-06-26T17:24:48.692Z,38.60
2019-06-26T17:27:17.421Z,38.50
2019-06-26T17:29:45.964Z,38.40
2019-06-26T17:32:14.841Z,38.10
2019-06-26T17:34:43.474Z,38.20
2019-06-26T17:37:14.005Z,38.10
2019-06-26T17:39:43.090Z,38.20
2019-06-26T17:42:11.809Z,38.20
2019-06-26T17:44:42.042Z,38.20
2019-06-26T17:47:10.906Z,38.30
2019-06-26T17:49:40.573Z,38.20
2019-06-26T17:52:09.138Z,38.20
2019-06-26T17:54:37.986Z,38.20
2019-06-26T17:57:06.698Z,38.20
2019-06-26T17:59:36.026Z,38.10
2019-06-26T18:02:04.852Z,38.10
2019-06-26T18:04:33.650Z,38.10
2019-06-26T18:07:02.348Z,38.00
2019-06-26T18:09:31.326Z,38.00
2019-06-26T18:12:00.667Z,37.90
2019-06-26T18:14:31.089Z,37.90
2019-06-26T18:17:01.046Z,37.80
2019-06-26T18:19:30.381Z,37.80
2019-06-26T18:21:59.217Z,37.80
2019-06-26T18:24:28.308Z,37.80
2019-06-26T18:26:56.956Z,37.70
2019-06-26T18:29:25.795Z,37.70
2019-06-26T18:31:56.549Z,37.70
2019-06-26T18:34:25.137Z,37.60
2019-06-26T18:36:53.835Z,37.50
2019-06-26T18:39:24.401Z,37.40
2019-06-26T18:41:53.083Z,37.40
2019-06-26T18:44:21.734Z,37.20
2019-06-26T18:46:51.960Z,37.10
2019-06-26T18:49:21.208Z,37.00
2019-06-26T18:51:49.786Z,36.80
2019-06-26T18:54:18.589Z,36.60
2019-06-26T18:56:47.323Z,36.40
2019-06-26T18:59:16.466Z,36.30
2019-06-26T19:01:46.862Z,36.10
2019-06-26T19:04:21.934Z,35.90
2019-06-26T19:18:09.467Z,35.30
2019-06-26T19:20:40.143Z,35.10
2019-06-26T19:23:08.798Z,35.00
2019-06-26T19:25:37.454Z,34.90
2019-06-26T19:28:06.204Z,34.70
2019-06-26T19:30:34.811Z,34.50
2019-06-26T19:33:05.297Z,34.40
2019-06-26T19:35:34.107Z,34.30
2019-06-26T19:38:02.767Z,34.30
2019-06-26T19:40:35.002Z,34.10
2019-06-26T19:43:04.420Z,34.00
2019-06-26T19:45:33.346Z,33.80
2019-06-26T19:48:02.516Z,33.90
2019-06-26T19:50:31.449Z,33.80
2019-06-26T19:53:00.422Z,33.50
2019-06-26T19:55:28.732Z,33.50
2019-06-26T19:57:57.518Z,33.40
2019-06-26T20:00:26.452Z,33.20
2019-06-26T20:02:54.906Z,33.20
2019-06-26T20:05:23.576Z,33.10
2019-06-26T20:07:52.514Z,33.10
2019-06-26T20:10:21.354Z,33.00
2019-06-26T20:12:49.885Z,32.80
2019-06-26T20:15:18.606Z,32.70
2019-06-26T20:17:53.678Z,32.70
2019-06-26T20:20:22.458Z,32.70
2019-06-26T20:22:53.251Z,32.60
2019-06-26T20:25:22.011Z,32.50
2019-06-26T20:27:56.916Z,32.50
2019-06-26T20:30:27.276Z,32.40
2019-06-26T20:32:56.904Z,32.30
2019-06-26T20:35:25.938Z,32.20
2019-06-26T20:37:54.906Z,32.20
2019-06-26T20:40:24.180Z,32.20
2019-06-26T20:42:52.863Z,32.10
2019-06-26T20:45:21.995Z,32.00
2019-06-26T20:47:50.577Z,32.10
2019-06-26T20:50:19.520Z,32.10
2019-06-26T20:52:47.940Z,32.20
2019-06-26T20:55:16.961Z,32.20
2019-06-26T20:57:45.983Z,32.20
2019-06-26T21:00:15.646Z,32.20
2019-06-26T21:02:44.371Z,32.20
2019-06-26T21:05:13.217Z,32.10
2019-06-26T21:07:42.212Z,31.80
2019-06-26T21:10:11.575Z,31.70
2019-06-26T21:12:40.296Z,31.70
2019-06-26T21:15:10.437Z,31.70
2019-06-26T21:17:38.697Z,31.50
2019-06-26T21:20:07.868Z,31.60
2019-06-26T21:22:36.531Z,31.60
2019-06-26T21:25:17.484Z,31.50
2019-06-26T21:27:38.266Z,31.40
2019-06-26T21:30:09.255Z,31.30
2019-06-26T21:32:37.820Z,31.30
2019-06-26T21:35:06.269Z,31.30
2019-06-26T21:37:34.764Z,31.30
2019-06-26T21:40:03.978Z,31.30
2019-06-26T21:42:32.568Z,31.20
2019-06-26T21:45:01.047Z,31.20
2019-06-26T21:47:29.763Z,31.10
2019-06-26T21:49:58.388Z,31.10
2019-06-26T21:52:26.761Z,31.00
2019-06-26T21:54:55.284Z,31.00
2019-06-26T21:57:24.016Z,30.90
2019-06-26T21:59:52.838Z,30.90
2019-06-26T22:02:22.115Z,30.80
2019-06-26T22:04:50.655Z,30.80
2019-06-26T22:07:19.690Z,30.80
2019-06-26T22:09:48.438Z,30.80
2019-06-26T22:12:17.326Z,30.80
2019-06-26T22:14:45.959Z,30.80
2019-06-26T22:17:15.552Z,30.70
2019-06-26T22:19:44.714Z,30.70
2019-06-26T22:22:13.618Z,30.60
2019-06-26T22:24:42.566Z,30.60
2019-06-26T22:27:13.210Z,30.50
2019-06-26T22:29:42.101Z,30.40
2019-06-26T22:32:11.123Z,30.40
2019-06-26T22:34:39.785Z,30.30
2019-06-26T22:37:08.493Z,30.20
2019-06-26T22:39:38.037Z,30.20
2019-06-26T22:42:07.400Z,30.10
2019-06-26T22:44:36.360Z,29.90
2019-06-26T22:47:05.050Z,29.90
2019-06-26T22:49:33.449Z,29.90
2019-06-26T22:52:02.097Z,29.90
2019-06-26T22:54:31.109Z,29.80
2019-06-26T22:56:59.715Z,29.80
2019-06-26T22:59:28.524Z,29.90
2019-06-26T23:01:57.463Z,29.90
2019-06-26T23:04:26.133Z,29.80
2019-06-26T23:06:55.091Z,29.80
2019-06-26T23:09:23.804Z,29.80
2019-06-26T23:11:52.282Z,29.70
2019-06-26T23:14:20.968Z,29.70
2019-06-26T23:16:49.591Z,29.60
2019-06-26T23:19:18.239Z,29.60
2019-06-26T23:21:46.568Z,29.60
2019-06-26T23:24:14.992Z,29.50
2019-06-26T23:26:43.763Z,29.40
2019-06-26T23:29:14.264Z,29.40
2019-06-26T23:31:43.223Z,29.30
2019-06-26T23:34:12.093Z,29.30
2019-06-26T23:36:40.944Z,29.20
2019-06-26T23:39:09.637Z,29.10
2019-06-26T23:41:38.282Z,29.00
2019-06-26T23:44:07.008Z,29.00
2019-06-26T23:46:35.630Z,29.00
2019-06-26T23:49:04.715Z,28.90
2019-06-26T23:51:33.340Z,28.90
2019-06-26T23:54:02.122Z,28.80
2019-06-26T23:56:40.525Z,28.80
2019-06-26T23:59:02.266Z,28.70
